createdAt,value
2023-04-10T00:00:38.125Z,2.58
2023-04-10T00:03:06.101Z,3.10
2023-04-10T00:05:33.450Z,4.25
2023-04-10T00:08:00.941Z,3.60
2023-04-10T00:10:30.490Z,3.60
2023-04-10T00:12:58.968Z,3.28
2023-04-10T00:15:26.020Z,3.47
2023-04-10T00:17:55.347Z,3.20
2023-04-10T00:20:23.594Z,3.10
2023-04-10T00:22:50.780Z,3.40
2023-04-10T00:25:18.097Z,2.75
2023-04-10T00:27:45.075Z,3.35
2023-04-10T00:30:12.293Z,2.83
2023-04-10T00:32:39.448Z,3.33
2023-04-10T00:35:08.488Z,3.63
2023-04-10T00:37:35.861Z,3.40
2023-04-10T00:40:03.460Z,3.75
2023-04-10T00:42:30.561Z,3.30
2023-04-10T00:44:57.666Z,2.75
2023-04-10T00:47:25.747Z,2.72
2023-04-10T00:49:53.329Z,3.70
2023-04-10T00:52:20.550Z,3.60
2023-04-10T00:54:47.688Z,3.42
2023-04-10T00:57:14.696Z,3.05
2023-04-10T00:59:41.742Z,3.10
2023-04-10T01:02:08.941Z,3.80
2023-04-10T01:04:36.305Z,3.25
2023-04-10T01:07:46.739Z,2.75
2023-04-10T01:10:41.270Z,3.22
2023-04-10T01:13:36.025Z,3.20
2023-04-10T01:16:18.798Z,3.33
2023-04-10T01:19:24.604Z,3.85
2023-04-10T01:21:54.021Z,3.03
2023-04-10T01:24:54.509Z,3.22
2023-04-10T01:28:16.320Z,3.25
2023-04-10T01:30:44.977Z,2.88
2023-04-10T01:33:19.092Z,2.80
2023-04-10T01:35:53.348Z,2.75
2023-04-10T01:38:24.147Z,2.70
2023-04-10T01:40:53.970Z,2.85
2023-04-10T01:43:22.861Z,3.42
2023-04-10T01:45:52.717Z,2.63
2023-04-10T01:48:20.572Z,3.13
2023-04-10T01:50:48.613Z,2.83
2023-04-10T01:53:16.707Z,2.55
2023-04-10T01:55:44.086Z,3.03
2023-04-10T01:58:11.345Z,3.15
2023-04-10T02:00:43.158Z,2.65
2023-04-10T02:03:11.471Z,2.60
2023-04-10T02:06:14.510Z,2.85
2023-04-10T02:08:58.993Z,2.50
2023-04-10T02:11:39.919Z,3.00
2023-04-10T02:14:16.467Z,2.58
2023-04-10T02:16:44.688Z,2.75
2023-04-10T02:19:12.878Z,2.75
2023-04-10T02:21:42.159Z,2.50
2023-04-10T02:24:09.242Z,2.65
2023-04-10T02:26:50.885Z,3.03
2023-04-10T02:29:18.417Z,2.85
2023-04-10T02:31:46.601Z,3.08
2023-04-10T02:34:13.684Z,2.42
2023-04-10T02:36:40.715Z,2.60
2023-04-10T02:39:11.121Z,2.58
2023-04-10T02:41:38.083Z,2.25
2023-04-10T02:46:33.960Z,2.85
2023-04-10T02:49:01.884Z,2.88
2023-04-10T02:51:28.793Z,2.92
2023-04-10T02:53:56.055Z,2.50
2023-04-10T02:56:23.066Z,2.70
2023-04-10T02:58:50.203Z,2.40
2023-04-10T03:01:17.290Z,2.60
2023-04-10T03:03:44.356Z,2.25
2023-04-10T03:06:11.528Z,2.95
2023-04-10T03:08:38.497Z,2.55
2023-04-10T03:11:06.120Z,2.40
2023-04-10T03:13:33.057Z,2.45
2023-04-10T03:16:00.123Z,2.60
2023-04-10T03:18:27.164Z,2.80
2023-04-10T03:20:54.190Z,2.35
2023-04-10T03:23:21.346Z,2.95
2023-04-10T03:25:55.309Z,2.15
2023-04-10T03:28:22.815Z,2.72
2023-04-10T03:30:52.902Z,2.83
2023-04-10T03:33:20.037Z,3.00
2023-04-10T03:35:47.551Z,3.08
2023-04-10T03:38:14.888Z,2.40
2023-04-10T03:40:41.878Z,2.50
2023-04-10T03:43:08.916Z,2.30
2023-04-10T03:45:35.897Z,2.67
2023-04-10T03:48:03.021Z,2.58
2023-04-10T03:50:30.585Z,2.05
2023-04-10T03:52:57.551Z,2.65
2023-04-10T03:55:24.538Z,2.28
2023-04-10T03:57:51.491Z,2.33
2023-04-10T04:00:18.632Z,2.83
2023-04-10T04:02:46.057Z,2.50
2023-04-10T04:05:13.335Z,2.50
2023-04-10T04:07:40.775Z,2.63
2023-04-10T04:10:08.302Z,3.03
2023-04-10T04:12:35.278Z,2.90
2023-04-10T04:15:02.458Z,2.50
2023-04-10T04:17:29.561Z,2.25
2023-04-10T04:19:56.564Z,2.78
2023-04-10T04:22:23.593Z,2.42
2023-04-10T04:24:50.615Z,2.60
2023-04-10T04:27:17.612Z,2.85
2023-04-10T04:29:44.589Z,2.10
2023-04-10T04:32:11.949Z,2.90
2023-04-10T04:34:39.028Z,2.67
2023-04-10T04:37:06.023Z,2.58
2023-04-10T04:39:33.016Z,2.13
2023-04-10T04:42:00.177Z,2.95
2023-04-10T04:44:27.172Z,2.38
2023-04-10T04:46:54.164Z,2.65
2023-04-10T04:49:21.224Z,2.40
2023-04-10T04:51:48.183Z,2.58
2023-04-10T04:54:15.465Z,2.05
2023-04-10T04:56:42.507Z,2.05
2023-04-10T04:59:09.510Z,2.97
2023-04-10T05:01:36.669Z,2.80
2023-04-10T05:04:04.033Z,2.30
2023-04-10T05:06:31.808Z,2.35
2023-04-10T05:08:58.779Z,2.67
2023-04-10T05:11:26.919Z,2.33
2023-04-10T05:13:53.898Z,2.40
2023-04-10T05:16:20.917Z,2.88
2023-04-10T05:18:47.997Z,2.72
2023-04-10T05:21:15.785Z,2.33
2023-04-10T05:23:42.763Z,2.42
2023-04-10T05:26:09.757Z,2.17
2023-04-10T05:28:36.842Z,2.40
2023-04-10T05:31:03.908Z,2.40
2023-04-10T05:33:30.968Z,2.60
2023-04-10T05:35:57.983Z,2.75
2023-04-10T05:38:25.290Z,2.55
2023-04-10T05:40:52.223Z,2.13
2023-04-10T05:43:19.224Z,2.40
2023-04-10T05:45:46.171Z,2.92
2023-04-10T05:48:13.149Z,1.50
2023-04-10T05:50:40.324Z,0.75
2023-04-10T05:53:07.370Z,0.40
2023-04-10T05:55:34.811Z,0.40
2023-04-10T05:58:01.944Z,0.57
2023-04-10T06:00:29.356Z,0.52
2023-04-10T06:02:56.461Z,0.57
2023-04-10T06:05:23.561Z,0.30
2023-04-10T06:07:51.688Z,0.50
2023-04-10T06:10:18.715Z,0.55
2023-04-10T06:12:45.945Z,0.60
2023-04-10T06:15:12.906Z,0.60
2023-04-10T06:17:45.859Z,0.70
2023-04-10T06:20:13.517Z,0.40
2023-04-10T06:22:40.685Z,0.32
2023-04-10T06:25:08.208Z,0.75
2023-04-10T06:27:38.358Z,0.45
2023-04-10T06:30:06.535Z,0.63
2023-04-10T06:32:33.520Z,0.50
2023-04-10T06:35:00.701Z,0.60
2023-04-10T06:37:31.289Z,0.55
2023-04-10T06:40:11.354Z,0.70
2023-04-10T06:42:38.415Z,0.30
2023-04-10T06:45:06.445Z,0.75
2023-04-10T06:47:33.601Z,0.50
2023-04-10T06:50:00.773Z,0.85
2023-04-10T06:52:28.530Z,0.47
2023-04-10T06:54:55.556Z,0.60
2023-04-10T06:57:22.828Z,0.50
2023-04-10T06:59:49.925Z,0.82
2023-04-10T07:02:16.911Z,0.43
2023-04-10T07:04:43.938Z,0.65
2023-04-10T07:07:13.356Z,0.38
2023-04-10T07:09:40.509Z,0.55
2023-04-10T07:12:07.890Z,0.68
2023-04-10T07:14:35.857Z,0.63
2023-04-10T07:17:03.258Z,0.50
2023-04-10T07:19:30.312Z,0.40
2023-04-10T07:21:57.703Z,0.90
2023-04-10T07:24:24.769Z,1.13
2023-04-10T07:26:51.826Z,0.73
2023-04-10T07:29:20.907Z,0.70
2023-04-10T07:31:48.137Z,0.90
2023-04-10T07:34:15.289Z,0.65
2023-04-10T07:36:43.159Z,0.88
2023-04-10T07:39:11.446Z,0.77
2023-04-10T07:41:38.536Z,0.68
2023-04-10T07:44:05.821Z,0.60
2023-04-10T07:46:32.862Z,0.43
2023-04-10T07:49:01.159Z,0.50
2023-04-10T07:51:29.049Z,0.90
2023-04-10T07:53:56.285Z,0.30
2023-04-10T07:56:23.692Z,0.77
2023-04-10T07:58:52.341Z,0.68
2023-04-10T08:01:19.702Z,0.60
2023-04-10T08:03:48.118Z,0.32
2023-04-10T08:06:15.520Z,1.40
2023-04-10T08:08:44.021Z,0.70
2023-04-10T08:11:35.208Z,1.00
2023-04-10T08:14:05.492Z,0.50
2023-04-10T08:16:34.992Z,0.85
2023-04-10T08:19:04.076Z,0.55
2023-04-10T08:21:32.452Z,0.85
2023-04-10T08:24:02.695Z,0.75
2023-04-10T08:26:29.968Z,0.60
2023-04-10T08:28:59.883Z,0.60
2023-04-10T08:31:28.939Z,1.00
2023-04-10T08:33:56.870Z,0.60
2023-04-10T08:36:24.274Z,0.60
2023-04-10T08:38:51.514Z,0.70
2023-04-10T08:41:20.745Z,0.77
2023-04-10T08:43:49.720Z,0.55
2023-04-10T08:46:17.488Z,1.02
2023-04-10T08:48:48.713Z,0.80
2023-04-10T08:51:26.156Z,0.93
2023-04-10T08:54:01.432Z,0.75
2023-04-10T08:56:30.473Z,0.55
2023-04-10T08:58:57.704Z,1.52
2023-04-10T09:01:25.981Z,0.93
2023-04-10T09:03:53.352Z,0.77
2023-04-10T09:06:20.434Z,0.85
2023-04-10T09:08:47.552Z,0.80
2023-04-10T09:11:15.092Z,1.20
2023-04-10T09:13:44.190Z,0.80
2023-04-10T09:16:13.999Z,1.00
2023-04-10T09:18:51.361Z,0.85
2023-04-10T09:21:22.394Z,1.45
2023-04-10T09:23:59.633Z,0.65
2023-04-10T09:26:28.753Z,0.70
2023-04-10T09:29:07.214Z,0.85
2023-04-10T09:31:37.607Z,0.50
2023-04-10T09:34:21.568Z,0.70
2023-04-10T09:37:01.679Z,1.17
2023-04-10T09:39:43.304Z,0.85
2023-04-10T09:42:14.887Z,1.02
2023-04-10T09:44:43.057Z,0.90
2023-04-10T09:47:24.371Z,0.77
2023-04-10T09:49:55.079Z,0.90
2023-04-10T09:52:29.734Z,0.90
2023-04-10T09:55:08.723Z,0.80
2023-04-10T09:57:36.297Z,3.08
2023-04-10T10:00:09.438Z,2.80
2023-04-10T10:02:41.520Z,3.15
2023-04-10T10:05:10.577Z,3.20
2023-04-10T10:07:38.701Z,1.30
2023-04-10T10:10:09.224Z,1.10
2023-04-10T10:12:51.757Z,2.03
2023-04-10T10:15:37.354Z,2.75
2023-04-10T10:18:29.718Z,2.97
2023-04-10T10:20:56.969Z,2.65
2023-04-10T10:23:25.523Z,3.10
2023-04-10T10:25:54.280Z,1.80
2023-04-10T10:28:22.580Z,3.67
2023-04-10T10:30:50.049Z,3.55
2023-04-10T10:33:17.566Z,2.20
2023-04-10T10:35:45.426Z,2.97
2023-04-10T10:38:12.821Z,3.20
2023-04-10T10:41:02.696Z,3.15
2023-04-10T10:44:08.440Z,1.75
2023-04-10T10:46:50.889Z,1.52
2023-04-10T10:49:17.876Z,2.65
2023-04-10T10:51:51.862Z,2.67
2023-04-10T10:54:34.022Z,1.65
2023-04-10T10:57:03.369Z,1.80
2023-04-10T10:59:48.646Z,1.45
2023-04-10T11:02:17.999Z,3.20
2023-04-10T11:04:49.305Z,3.00
2023-04-10T11:07:17.398Z,2.83
2023-04-10T11:09:52.304Z,1.63
2023-04-10T11:12:24.765Z,2.05
2023-04-10T11:15:01.151Z,2.22
2023-04-10T11:17:52.016Z,2.55
2023-04-10T11:20:22.285Z,2.58
2023-04-10T11:23:21.786Z,2.50
2023-04-10T11:25:53.695Z,0.95
2023-04-10T11:28:32.910Z,3.05
2023-04-10T11:31:22.890Z,2.33
2023-04-10T11:33:56.657Z,2.50
2023-04-10T11:36:24.555Z,3.33
2023-04-10T11:39:04.176Z,2.42
2023-04-10T11:41:34.280Z,1.55
2023-04-10T11:44:03.620Z,2.08
2023-04-10T11:46:31.843Z,1.92
2023-04-10T11:49:01.306Z,3.22
2023-04-10T11:51:28.778Z,0.77
2023-04-10T11:54:26.422Z,2.60
2023-04-10T11:57:11.944Z,2.53
2023-04-10T11:59:39.015Z,3.13
2023-04-10T12:02:16.818Z,2.70
2023-04-10T12:04:44.671Z,2.60
2023-04-10T12:07:12.144Z,2.58
2023-04-10T12:09:39.283Z,2.03
2023-04-10T12:12:08.393Z,2.78
2023-04-10T12:14:38.569Z,3.38
2023-04-10T12:17:09.147Z,1.30
2023-04-10T12:19:37.833Z,3.50
2023-04-10T12:22:05.002Z,1.75
2023-04-10T12:24:50.155Z,2.40
2023-04-10T12:27:26.731Z,2.53
2023-04-10T12:29:56.726Z,1.70
2023-04-10T12:32:25.028Z,1.52
2023-04-10T12:34:57.168Z,1.80
2023-04-10T12:37:26.118Z,1.48
2023-04-10T12:39:53.557Z,2.38
2023-04-10T12:42:23.889Z,1.38
2023-04-10T12:45:00.473Z,1.92
2023-04-10T12:47:29.622Z,2.25
2023-04-10T12:50:11.115Z,2.08
2023-04-10T12:52:46.796Z,1.63
2023-04-10T12:55:18.822Z,2.15
2023-04-10T12:57:48.796Z,2.20
2023-04-10T13:00:20.532Z,2.30
2023-04-10T13:02:49.172Z,1.65
2023-04-10T13:05:16.546Z,1.77
2023-04-10T13:07:43.599Z,2.05
2023-04-10T13:10:10.859Z,1.67
2023-04-10T13:12:39.119Z,2.00
2023-04-10T13:15:07.913Z,1.63
2023-04-10T13:17:35.791Z,1.77
2023-04-10T13:20:04.688Z,1.73
2023-04-10T13:22:31.676Z,1.63
2023-04-10T13:24:59.420Z,1.10
2023-04-10T13:27:26.605Z,0.55
2023-04-10T13:29:53.649Z,2.00
2023-04-10T13:32:21.239Z,1.10
2023-04-10T13:34:48.184Z,2.13
2023-04-10T13:37:15.362Z,1.80
2023-04-10T13:39:43.540Z,2.05
2023-04-10T13:42:10.543Z,2.25
2023-04-10T13:44:37.485Z,2.38
2023-04-10T13:47:04.580Z,1.73
2023-04-10T13:49:31.647Z,0.57
2023-04-10T13:51:58.800Z,2.03
2023-04-10T13:54:26.664Z,0.90
2023-04-10T13:56:54.722Z,1.42
2023-04-10T13:59:22.019Z,2.40
2023-04-10T14:01:52.021Z,1.90
2023-04-10T14:04:19.712Z,1.08
2023-04-10T14:06:46.779Z,1.90
2023-04-10T14:09:13.812Z,2.40
2023-04-10T14:11:40.795Z,2.60
2023-04-10T14:14:07.884Z,2.22
2023-04-10T14:16:34.990Z,2.47
2023-04-10T14:19:02.077Z,2.08
2023-04-10T14:21:29.159Z,2.33
2023-04-10T14:23:56.205Z,2.08
2023-04-10T14:26:23.578Z,1.90
2023-04-10T14:28:50.589Z,2.28
2023-04-10T14:31:17.845Z,2.95
2023-04-10T14:33:44.836Z,2.70
2023-04-10T14:36:11.851Z,2.38
2023-04-10T14:38:39.806Z,2.78
2023-04-10T14:41:07.533Z,2.05
2023-04-10T14:43:34.730Z,2.92
2023-04-10T14:46:01.820Z,2.40
2023-04-10T14:48:28.954Z,0.95
2023-04-10T14:50:59.003Z,3.35
2023-04-10T14:53:26.110Z,2.58
2023-04-10T14:55:53.078Z,2.22
2023-04-10T14:58:20.037Z,3.70
2023-04-10T15:00:47.321Z,3.25
2023-04-10T15:03:14.390Z,1.75
2023-04-10T15:05:41.521Z,2.72
2023-04-10T15:08:08.580Z,1.63
2023-04-10T15:10:35.656Z,1.70
2023-04-10T15:13:04.096Z,1.95
2023-04-10T15:15:31.100Z,1.88
2023-04-10T15:17:58.234Z,1.83
2023-04-10T15:20:25.320Z,3.13
2023-04-10T15:22:54.944Z,0.98
2023-04-10T15:25:23.289Z,1.92
2023-04-10T15:27:50.557Z,0.82
2023-04-10T15:30:17.669Z,2.17
2023-04-10T15:32:44.760Z,2.90
2023-04-10T15:35:11.789Z,3.05
2023-04-10T15:37:38.839Z,2.20
2023-04-10T15:40:06.754Z,2.53
2023-04-10T15:42:35.148Z,3.65
2023-04-10T15:45:03.582Z,2.67
2023-04-10T15:47:30.862Z,2.75
2023-04-10T15:49:58.174Z,4.78
2023-04-10T15:52:25.383Z,2.90
2023-04-10T15:54:52.825Z,4.13
2023-04-10T15:57:19.990Z,3.85
2023-04-10T15:59:46.968Z,2.88
2023-04-10T16:02:14.039Z,4.20
2023-04-10T16:04:41.215Z,2.85
2023-04-10T16:07:08.289Z,3.05
2023-04-10T16:09:35.240Z,3.53
2023-04-10T16:12:03.172Z,3.15
2023-04-10T16:14:30.190Z,2.80
2023-04-10T16:16:57.232Z,3.00
2023-04-10T16:19:24.179Z,2.63
2023-04-10T16:21:53.329Z,2.17
2023-04-10T16:24:20.413Z,2.38
2023-04-10T16:26:47.386Z,5.88
2023-04-10T16:29:15.994Z,7.88
2023-04-10T16:31:43.053Z,5.93
2023-04-10T16:34:10.167Z,3.35
2023-04-10T16:36:37.783Z,3.38
2023-04-10T16:39:05.762Z,3.20
2023-04-10T16:41:32.842Z,2.55
2023-04-10T16:43:59.929Z,2.85
2023-04-10T16:46:28.040Z,1.95
2023-04-10T16:48:55.534Z,2.30
2023-04-10T16:51:24.488Z,3.08
2023-04-10T16:53:51.672Z,2.17
2023-04-10T16:56:19.063Z,2.65
2023-04-10T16:58:47.113Z,2.35
2023-04-10T17:01:25.833Z,2.45
2023-04-10T17:03:54.278Z,1.15
2023-04-10T17:06:21.376Z,1.70
2023-04-10T17:08:48.417Z,1.95
2023-04-10T17:11:16.124Z,1.92
2023-04-10T17:13:43.435Z,2.60
2023-04-10T17:16:10.692Z,2.17
2023-04-10T17:18:37.769Z,2.22
2023-04-10T17:21:05.109Z,2.13
2023-04-10T17:23:32.066Z,2.08
2023-04-10T17:25:59.257Z,1.63
2023-04-10T17:28:26.310Z,1.88
2023-04-10T17:30:53.266Z,1.65
2023-04-10T17:33:21.892Z,1.92
2023-04-10T17:35:51.975Z,0.57
2023-04-10T17:38:19.250Z,1.63
2023-04-10T17:40:46.228Z,2.22
2023-04-10T17:43:13.209Z,1.77
2023-04-10T17:45:40.749Z,1.40
2023-04-10T17:48:07.874Z,1.88
2023-04-10T17:50:35.198Z,1.90
2023-04-10T17:53:02.429Z,1.88
2023-04-10T17:55:29.509Z,2.45
2023-04-10T17:57:59.423Z,2.15
2023-04-10T18:00:26.728Z,1.65
2023-04-10T18:02:59.889Z,1.17
2023-04-10T18:05:31.014Z,2.70
2023-04-10T18:07:57.981Z,3.95
2023-04-10T18:10:24.980Z,1.60
2023-04-10T18:12:51.991Z,1.40
2023-04-10T18:15:19.068Z,1.75
2023-04-10T18:17:46.108Z,3.28
2023-04-10T18:20:13.216Z,1.48
2023-04-10T18:22:40.549Z,2.33
2023-04-10T18:25:08.281Z,2.25
2023-04-10T18:27:36.013Z,1.90
2023-04-10T18:30:03.409Z,3.53
2023-04-10T18:32:30.492Z,1.35
2023-04-10T18:34:57.544Z,1.65
2023-04-10T18:37:24.642Z,2.08
2023-04-10T18:39:51.732Z,2.00
2023-04-10T18:42:18.686Z,2.20
2023-04-10T18:44:45.815Z,1.88
2023-04-10T18:47:12.831Z,9.43
2023-04-10T18:49:39.905Z,7.55
2023-04-10T18:52:07.605Z,2.33
2023-04-10T18:54:35.122Z,4.10
2023-04-10T18:57:02.359Z,5.28
2023-04-10T18:59:29.582Z,3.97
2023-04-10T19:01:56.709Z,3.70
2023-04-10T19:04:24.644Z,2.30
2023-04-10T19:06:51.790Z,2.10
2023-04-10T19:09:18.853Z,1.67
2023-04-10T19:11:45.965Z,1.70
2023-04-10T19:14:12.941Z,2.38
2023-04-10T19:16:39.868Z,1.35
2023-04-10T19:19:06.882Z,0.88
2023-04-10T19:21:34.577Z,1.77
2023-04-10T19:24:01.547Z,1.13
2023-04-10T19:26:28.615Z,1.45
2023-04-10T19:28:55.913Z,1.10
2023-04-10T19:31:24.019Z,1.25
2023-04-10T19:33:51.083Z,0.70
2023-04-10T19:36:19.099Z,0.50
2023-04-10T19:38:48.962Z,0.30
2023-04-10T19:41:16.694Z,0.90
2023-04-10T19:43:43.802Z,0.80
2023-04-10T19:46:19.152Z,1.05
2023-04-10T19:48:47.104Z,0.82
2023-04-10T19:51:14.331Z,1.90
2023-04-10T19:53:42.353Z,1.55
2023-04-10T19:56:09.626Z,1.40
2023-04-10T19:58:40.913Z,0.32
2023-04-10T20:01:09.334Z,0.63
2023-04-10T20:03:37.784Z,0.90
2023-04-10T20:06:08.881Z,1.85
2023-04-10T20:08:36.236Z,0.63
2023-04-10T20:11:06.297Z,0.82
2023-04-10T20:13:34.510Z,1.23
2023-04-10T20:16:01.645Z,1.38
2023-04-10T20:18:28.762Z,1.70
2023-04-10T20:20:55.779Z,1.08
2023-04-10T20:23:22.776Z,0.30
2023-04-10T20:25:49.800Z,1.55
2023-04-10T20:28:17.546Z,0.95
2023-04-10T20:30:44.539Z,1.52
2023-04-10T20:33:11.687Z,1.85
2023-04-10T20:35:38.816Z,1.30
2023-04-10T20:38:06.506Z,1.70
2023-04-10T20:40:33.556Z,1.27
2023-04-10T20:43:00.726Z,1.60
2023-04-10T20:45:28.392Z,0.98
2023-04-10T20:47:57.933Z,1.63
2023-04-10T20:50:24.976Z,1.50
2023-04-10T20:52:52.054Z,2.08
2023-04-10T20:55:19.093Z,1.98
2023-04-10T20:57:46.168Z,0.52
2023-04-10T21:00:13.931Z,1.17
2023-04-10T21:02:41.241Z,1.40
2023-04-10T21:05:09.334Z,1.27
2023-04-10T21:07:36.368Z,0.45
2023-04-10T21:10:04.235Z,0.77
2023-04-10T21:12:31.266Z,1.02
2023-04-10T21:14:58.274Z,1.02
2023-04-10T21:17:28.945Z,1.17
2023-04-10T21:19:55.962Z,0.98
2023-04-10T21:22:22.893Z,1.80
2023-04-10T21:24:49.917Z,1.75
2023-04-10T21:27:17.066Z,2.22
2023-04-10T21:29:44.238Z,1.60
2023-04-10T21:32:11.203Z,1.98
2023-04-10T21:34:38.157Z,1.35
2023-04-10T21:37:05.146Z,1.60
2023-04-10T21:39:32.130Z,2.28
2023-04-10T21:41:59.110Z,1.65
2023-04-10T21:44:26.174Z,2.05
2023-04-10T21:46:53.163Z,2.08
2023-04-10T21:49:20.242Z,1.75
2023-04-10T21:51:47.268Z,1.27
2023-04-10T21:54:14.202Z,1.13
2023-04-10T21:56:41.394Z,1.45
2023-04-10T21:59:08.367Z,1.60
2023-04-10T22:01:35.459Z,2.10
2023-04-10T22:04:02.729Z,2.25
2023-04-10T22:06:29.807Z,1.90
2023-04-10T22:08:56.926Z,2.00
2023-04-10T22:11:24.001Z,2.42
2023-04-10T22:13:52.188Z,2.55
2023-04-10T22:16:19.811Z,2.00
2023-04-10T22:18:47.231Z,2.13
2023-04-10T22:21:14.294Z,1.60
2023-04-10T22:23:41.255Z,2.17
2023-04-10T22:26:08.314Z,1.38
2023-04-10T22:28:35.517Z,2.00
2023-04-10T22:31:02.617Z,1.02
2023-04-10T22:33:33.511Z,2.30
2023-04-10T22:36:00.556Z,2.33
2023-04-10T22:38:27.643Z,1.98
2023-04-10T22:40:55.989Z,1.67
2023-04-10T22:43:22.960Z,1.50
2023-04-10T22:45:50.161Z,2.05
2023-04-10T22:48:17.163Z,1.63
2023-04-10T22:50:44.407Z,1.65
2023-04-10T22:53:12.137Z,1.85
2023-04-10T22:55:39.902Z,2.08
2023-04-10T22:58:07.505Z,1.42
2023-04-10T23:00:34.892Z,1.60
2023-04-10T23:03:02.379Z,1.88
2023-04-10T23:05:29.684Z,1.77
2023-04-10T23:07:57.879Z,1.98
2023-04-10T23:10:24.899Z,2.13
2023-04-10T23:12:51.906Z,2.50
2023-04-10T23:15:18.919Z,2.55
2023-04-10T23:17:45.904Z,2.65
2023-04-10T23:20:13.097Z,1.15
2023-04-10T23:22:40.307Z,2.50
2023-04-10T23:25:07.580Z,3.30
2023-04-10T23:27:34.600Z,2.22
2023-04-10T23:30:02.068Z,2.13
2023-04-10T23:32:29.397Z,3.58
2023-04-10T23:34:56.413Z,2.95
2023-04-10T23:37:23.438Z,2.28
2023-04-10T23:39:50.344Z,2.88
2023-04-10T23:42:17.335Z,3.33
2023-04-10T23:44:44.357Z,2.92
2023-04-10T23:47:11.676Z,3.38
2023-04-10T23:49:38.676Z,3.60
2023-04-10T23:52:05.645Z,4.00
2023-04-10T23:54:32.724Z,2.67
2023-04-10T23:56:59.895Z,3.55
2023-04-10T23:59:26.968Z,3.13
